sensor_id;sensor_type;location;lat;lon;timestamp;temperature;humidity
429;DHT22;201;48.758;9.290;2022-08-14T00:00:14;19.90;1.00
429;DHT22;201;48.758;9.290;2022-08-14T00:02:40;20.00;1.00
429;DHT22;201;48.758;9.290;2022-08-14T00:05:15;20.00;1.00
429;DHT22;201;48.758;9.290;2022-08-14T00:07:42;20.00;1.00
429;DHT22;201;48.758;9.290;2022-08-14T00:10:11;20.00;1.00
429;DHT22;201;48.758;9.290;2022-08-14T00:12:39;20.00;1.00
429;DHT22;201;48.758;9.290;2022-08-14T00:15:19;20.00;1.00
429;DHT22;201;48.758;9.290;2022-08-14T00:17:45;20.00;1.00
429;DHT22;201;48.758;9.290;2022-08-14T00:20:11;19.90;1.00
429;DHT22;201;48.758;9.290;2022-08-14T00:22:37;19.90;1.00
429;DHT22;201;48.758;9.290;2022-08-14T00:25:04;19.80;1.00
429;DHT22;201;48.758;9.290;2022-08-14T00:27:30;19.70;1.00
429;DHT22;201;48.758;9.290;2022-08-14T00:29:56;19.70;1.00
429;DHT22;201;48.758;9.290;2022-08-14T00:32:21;19.60;1.00
429;DHT22;201;48.758;9.290;2022-08-14T00:34:46;19.40;1.00
429;DHT22;201;48.758;9.290;2022-08-14T00:37:12;19.40;1.00
429;DHT22;201;48.758;9.290;2022-08-14T00:39:38;19.40;1.00
429;DHT22;201;48.758;9.290;2022-08-14T00:42:04;19.40;1.00
429;DHT22;201;48.758;9.290;2022-08-14T00:44:30;19.30;1.00
429;DHT22;201;48.758;9.290;2022-08-14T00:46:55;19.30;1.00
429;DHT22;201;48.758;9.290;2022-08-14T00:49:21;19.10;1.00
429;DHT22;201;48.758;9.290;2022-08-14T00:51:47;19.10;1.00
429;DHT22;201;48.758;9.290;2022-08-14T00:54:12;19.10;1.00
429;DHT22;201;48.758;9.290;2022-08-14T00:56:39;19.10;1.00
429;DHT22;201;48.758;9.290;2022-08-14T00:59:04;18.90;1.00
429;DHT22;201;48.758;9.290;2022-08-14T01:01:30;18.80;1.00
429;DHT22;201;48.758;9.290;2022-08-14T01:03:58;18.70;1.00
429;DHT22;201;48.758;9.290;2022-08-14T01:06:27;18.50;1.00
429;DHT22;201;48.758;9.290;2022-08-14T01:08:54;18.40;1.00
429;DHT22;201;48.758;9.290;2022-08-14T01:11:20;18.30;1.00
429;DHT22;201;48.758;9.290;2022-08-14T01:13:46;18.30;1.00
429;DHT22;201;48.758;9.290;2022-08-14T01:16:15;18.30;1.00
429;DHT22;201;48.758;9.290;2022-08-14T01:18:41;18.30;1.00
429;DHT22;201;48.758;9.290;2022-08-14T01:21:34;18.30;1.00
429;DHT22;201;48.758;9.290;2022-08-14T01:24:01;18.30;1.00
429;DHT22;201;48.758;9.290;2022-08-14T01:26:27;18.30;1.00
429;DHT22;201;48.758;9.290;2022-08-14T01:28:56;18.20;1.00
429;DHT22;201;48.758;9.290;2022-08-14T01:31:29;18.20;1.00
429;DHT22;201;48.758;9.290;2022-08-14T01:33:57;18.10;1.00
429;DHT22;201;48.758;9.290;2022-08-14T01:36:25;18.10;1.00
429;DHT22;201;48.758;9.290;2022-08-14T01:38:53;18.00;1.00
429;DHT22;201;48.758;9.290;2022-08-14T01:41:21;17.80;1.00
429;DHT22;201;48.758;9.290;2022-08-14T01:43:54;17.80;1.00
429;DHT22;201;48.758;9.290;2022-08-14T01:46:27;17.70;1.00
429;DHT22;201;48.758;9.290;2022-08-14T01:48:53;17.60;1.00
429;DHT22;201;48.758;9.290;2022-08-14T01:51:20;17.60;1.00
429;DHT22;201;48.758;9.290;2022-08-14T01:53:50;17.50;1.00
429;DHT22;201;48.758;9.290;2022-08-14T01:56:18;17.40;1.00
429;DHT22;201;48.758;9.290;2022-08-14T01:58:48;17.40;1.00
429;DHT22;201;48.758;9.290;2022-08-14T02:01:18;17.50;1.00
429;DHT22;201;48.758;9.290;2022-08-14T02:03:45;17.60;1.00
429;DHT22;201;48.758;9.290;2022-08-14T02:06:12;17.60;1.00
429;DHT22;201;48.758;9.290;2022-08-14T02:08:39;17.50;1.00
429;DHT22;201;48.758;9.290;2022-08-14T02:11:08;17.40;1.00
429;DHT22;201;48.758;9.290;2022-08-14T02:13:52;17.30;1.00
429;DHT22;201;48.758;9.290;2022-08-14T02:16:20;17.30;1.00
429;DHT22;201;48.758;9.290;2022-08-14T02:18:46;17.30;1.00
429;DHT22;201;48.758;9.290;2022-08-14T02:21:13;17.30;1.00
429;DHT22;201;48.758;9.290;2022-08-14T02:23:44;17.30;1.00
429;DHT22;201;48.758;9.290;2022-08-14T02:26:28;17.40;1.00
429;DHT22;201;48.758;9.290;2022-08-14T02:28:57;17.50;1.00
429;DHT22;201;48.758;9.290;2022-08-14T02:31:25;17.50;1.00
429;DHT22;201;48.758;9.290;2022-08-14T02:34:07;17.50;1.00
429;DHT22;201;48.758;9.290;2022-08-14T02:36:38;17.50;1.00
429;DHT22;201;48.758;9.290;2022-08-14T02:39:08;17.30;1.00
429;DHT22;201;48.758;9.290;2022-08-14T02:41:34;17.30;1.00
429;DHT22;201;48.758;9.290;2022-08-14T02:44:02;17.30;1.00
429;DHT22;201;48.758;9.290;2022-08-14T02:46:28;17.20;1.00
429;DHT22;201;48.758;9.290;2022-08-14T02:48:55;17.10;1.00
429;DHT22;201;48.758;9.290;2022-08-14T02:51:22;17.20;1.00
429;DHT22;201;48.758;9.290;2022-08-14T02:53:48;17.10;1.00
429;DHT22;201;48.758;9.290;2022-08-14T02:56:16;17.10;1.00
429;DHT22;201;48.758;9.290;2022-08-14T02:58:44;17.10;1.00
429;DHT22;201;48.758;9.290;2022-08-14T03:01:12;17.00;1.00
429;DHT22;201;48.758;9.290;2022-08-14T03:03:38;17.00;1.00
429;DHT22;201;48.758;9.290;2022-08-14T03:06:04;17.00;1.00
429;DHT22;201;48.758;9.290;2022-08-14T03:08:30;17.00;1.00
429;DHT22;201;48.758;9.290;2022-08-14T03:10:59;17.00;1.00
429;DHT22;201;48.758;9.290;2022-08-14T03:13:25;17.00;1.00
429;DHT22;201;48.758;9.290;2022-08-14T03:15:51;16.90;1.00
429;DHT22;201;48.758;9.290;2022-08-14T03:18:18;16.90;1.00
429;DHT22;201;48.758;9.290;2022-08-14T03:20:49;16.80;1.00
429;DHT22;201;48.758;9.290;2022-08-14T03:23:15;16.60;1.00
429;DHT22;201;48.758;9.290;2022-08-14T03:25:41;16.40;1.00
429;DHT22;201;48.758;9.290;2022-08-14T03:28:07;16.30;1.00
429;DHT22;201;48.758;9.290;2022-08-14T03:30:34;16.20;1.00
429;DHT22;201;48.758;9.290;2022-08-14T03:33:01;16.20;1.00
429;DHT22;201;48.758;9.290;2022-08-14T03:35:27;16.20;1.00
429;DHT22;201;48.758;9.290;2022-08-14T03:37:55;16.30;1.00
429;DHT22;201;48.758;9.290;2022-08-14T03:40:28;16.40;1.00
429;DHT22;201;48.758;9.290;2022-08-14T03:42:53;16.50;1.00
429;DHT22;201;48.758;9.290;2022-08-14T03:45:19;16.50;1.00
429;DHT22;201;48.758;9.290;2022-08-14T03:47:45;16.40;1.00
429;DHT22;201;48.758;9.290;2022-08-14T03:50:11;16.30;1.00
429;DHT22;201;48.758;9.290;2022-08-14T03:52:37;16.30;1.00
429;DHT22;201;48.758;9.290;2022-08-14T03:55:07;16.30;1.00
429;DHT22;201;48.758;9.290;2022-08-14T03:57:34;16.20;1.00
429;DHT22;201;48.758;9.290;2022-08-14T04:00:03;16.10;1.00
429;DHT22;201;48.758;9.290;2022-08-14T04:02:31;16.10;1.00
429;DHT22;201;48.758;9.290;2022-08-14T04:04:57;16.00;1.00
429;DHT22;201;48.758;9.290;2022-08-14T04:07:23;16.00;1.00
429;DHT22;201;48.758;9.290;2022-08-14T04:09:48;16.00;1.00
429;DHT22;201;48.758;9.290;2022-08-14T04:12:14;16.00;1.00
429;DHT22;201;48.758;9.290;2022-08-14T04:14:39;15.80;1.00
429;DHT22;201;48.758;9.290;2022-08-14T04:17:05;15.80;1.00
429;DHT22;201;48.758;9.290;2022-08-14T04:19:30;15.70;1.00
429;DHT22;201;48.758;9.290;2022-08-14T04:21:56;15.70;1.00
429;DHT22;201;48.758;9.290;2022-08-14T04:24:22;15.90;1.00
429;DHT22;201;48.758;9.290;2022-08-14T04:26:47;16.00;1.00
429;DHT22;201;48.758;9.290;2022-08-14T04:29:13;16.00;1.00
429;DHT22;201;48.758;9.290;2022-08-14T04:31:39;16.00;1.00
429;DHT22;201;48.758;9.290;2022-08-14T04:34:05;16.10;1.00
429;DHT22;201;48.758;9.290;2022-08-14T04:36:31;16.20;1.00
429;DHT22;201;48.758;9.290;2022-08-14T04:39:17;16.10;1.00
429;DHT22;201;48.758;9.290;2022-08-14T04:42:01;16.10;1.00
429;DHT22;201;48.758;9.290;2022-08-14T04:44:45;16.20;1.00
429;DHT22;201;48.758;9.290;2022-08-14T04:47:11;16.30;1.00
429;DHT22;201;48.758;9.290;2022-08-14T04:49:55;16.40;1.00
429;DHT22;201;48.758;9.290;2022-08-14T04:52:20;16.30;1.00
429;DHT22;201;48.758;9.290;2022-08-14T04:54:46;16.40;1.00
429;DHT22;201;48.758;9.290;2022-08-14T04:57:12;16.50;1.00
429;DHT22;201;48.758;9.290;2022-08-14T04:59:39;16.50;1.00
429;DHT22;201;48.758;9.290;2022-08-14T05:02:04;16.50;1.00
429;DHT22;201;48.758;9.290;2022-08-14T05:04:30;16.50;1.00
429;DHT22;201;48.758;9.290;2022-08-14T05:06:55;16.60;1.00
429;DHT22;201;48.758;9.290;2022-08-14T05:09:22;16.70;1.00
429;DHT22;201;48.758;9.290;2022-08-14T05:11:48;16.80;1.00
429;DHT22;201;48.758;9.290;2022-08-14T05:14:15;16.80;1.00
429;DHT22;201;48.758;9.290;2022-08-14T05:16:43;16.90;1.00
429;DHT22;201;48.758;9.290;2022-08-14T05:19:08;16.90;1.00
429;DHT22;201;48.758;9.290;2022-08-14T05:21:39;17.10;1.00
429;DHT22;201;48.758;9.290;2022-08-14T05:24:04;17.30;1.00
429;DHT22;201;48.758;9.290;2022-08-14T05:26:30;17.40;1.00
429;DHT22;201;48.758;9.290;2022-08-14T05:28:56;17.60;1.00
429;DHT22;201;48.758;9.290;2022-08-14T05:31:21;17.60;1.00
429;DHT22;201;48.758;9.290;2022-08-14T05:33:47;17.70;1.00
429;DHT22;201;48.758;9.290;2022-08-14T05:36:14;17.90;1.00
429;DHT22;201;48.758;9.290;2022-08-14T05:38:43;18.10;1.00
429;DHT22;201;48.758;9.290;2022-08-14T05:41:14;18.30;1.00
429;DHT22;201;48.758;9.290;2022-08-14T05:43:40;18.40;1.00
429;DHT22;201;48.758;9.290;2022-08-14T05:46:08;18.30;1.00
429;DHT22;201;48.758;9.290;2022-08-14T05:48:34;18.30;1.00
429;DHT22;201;48.758;9.290;2022-08-14T05:51:00;18.20;1.00
429;DHT22;201;48.758;9.290;2022-08-14T05:53:26;18.30;1.00
429;DHT22;201;48.758;9.290;2022-08-14T05:55:52;18.40;1.00
429;DHT22;201;48.758;9.290;2022-08-14T05:58:19;18.80;1.00
429;DHT22;201;48.758;9.290;2022-08-14T06:00:45;19.50;1.00
429;DHT22;201;48.758;9.290;2022-08-14T06:03:15;20.10;1.00
429;DHT22;201;48.758;9.290;2022-08-14T06:05:45;20.90;1.00
429;DHT22;201;48.758;9.290;2022-08-14T06:08:22;21.40;1.00
429;DHT22;201;48.758;9.290;2022-08-14T06:10:49;21.60;1.00
429;DHT22;201;48.758;9.290;2022-08-14T06:13:15;21.90;1.00
429;DHT22;201;48.758;9.290;2022-08-14T06:15:41;21.90;1.00
429;DHT22;201;48.758;9.290;2022-08-14T06:18:07;22.10;1.00
429;DHT22;201;48.758;9.290;2022-08-14T06:20:33;22.00;1.00
429;DHT22;201;48.758;9.290;2022-08-14T06:22:58;22.20;1.00
429;DHT22;201;48.758;9.290;2022-08-14T06:25:25;22.40;1.00
429;DHT22;201;48.758;9.290;2022-08-14T06:27:51;22.60;1.00
429;DHT22;201;48.758;9.290;2022-08-14T06:30:19;23.00;1.00
429;DHT22;201;48.758;9.290;2022-08-14T06:32:46;23.20;1.00
429;DHT22;201;48.758;9.290;2022-08-14T06:35:13;24.30;1.00
429;DHT22;201;48.758;9.290;2022-08-14T06:37:49;25.10;1.00
429;DHT22;201;48.758;9.290;2022-08-14T06:40:21;25.40;1.00
429;DHT22;201;48.758;9.290;2022-08-14T06:42:47;25.80;1.00
429;DHT22;201;48.758;9.290;2022-08-14T06:45:13;26.70;1.00
429;DHT22;201;48.758;9.290;2022-08-14T06:47:41;27.10;1.00
429;DHT22;201;48.758;9.290;2022-08-14T06:50:09;27.40;1.00
429;DHT22;201;48.758;9.290;2022-08-14T06:52:36;27.60;1.00
429;DHT22;201;48.758;9.290;2022-08-14T06:55:03;28.80;1.00
429;DHT22;201;48.758;9.290;2022-08-14T06:57:40;28.90;1.00
429;DHT22;201;48.758;9.290;2022-08-14T07:00:11;29.10;1.00
429;DHT22;201;48.758;9.290;2022-08-14T07:02:37;30.50;1.00
429;DHT22;201;48.758;9.290;2022-08-14T07:05:22;30.40;1.00
429;DHT22;201;48.758;9.290;2022-08-14T07:08:31;31.40;1.00
429;DHT22;201;48.758;9.290;2022-08-14T07:10:59;32.40;1.00
429;DHT22;201;48.758;9.290;2022-08-14T07:13:25;32.70;1.00
429;DHT22;201;48.758;9.290;2022-08-14T07:15:53;33.10;1.00
429;DHT22;201;48.758;9.290;2022-08-14T07:18:24;32.90;1.00
429;DHT22;201;48.758;9.290;2022-08-14T07:20:51;33.10;1.00
429;DHT22;201;48.758;9.290;2022-08-14T07:23:18;32.40;1.00
429;DHT22;201;48.758;9.290;2022-08-14T07:25:45;32.80;1.00
429;DHT22;201;48.758;9.290;2022-08-14T07:28:12;34.40;1.00
429;DHT22;201;48.758;9.290;2022-08-14T07:30:38;35.20;1.00
429;DHT22;201;48.758;9.290;2022-08-14T07:33:04;36.10;1.00
429;DHT22;201;48.758;9.290;2022-08-14T07:35:31;37.30;1.00
429;DHT22;201;48.758;9.290;2022-08-14T07:37:56;38.50;1.00
429;DHT22;201;48.758;9.290;2022-08-14T07:40:22;39.30;1.00
429;DHT22;201;48.758;9.290;2022-08-14T07:42:47;40.30;1.00
429;DHT22;201;48.758;9.290;2022-08-14T07:45:13;41.30;1.00
429;DHT22;201;48.758;9.290;2022-08-14T07:47:42;42.60;1.00
429;DHT22;201;48.758;9.290;2022-08-14T07:50:14;43.60;1.00
429;DHT22;201;48.758;9.290;2022-08-14T07:52:41;44.20;1.00
429;DHT22;201;48.758;9.290;2022-08-14T07:55:09;45.00;1.00
429;DHT22;201;48.758;9.290;2022-08-14T07:57:35;45.70;1.00
429;DHT22;201;48.758;9.290;2022-08-14T08:00:05;46.50;1.00
429;DHT22;201;48.758;9.290;2022-08-14T08:02:34;46.60;1.00
429;DHT22;201;48.758;9.290;2022-08-14T08:05:01;47.40;1.00
429;DHT22;201;48.758;9.290;2022-08-14T08:07:29;48.10;1.00
429;DHT22;201;48.758;9.290;2022-08-14T08:09:56;48.40;1.00
429;DHT22;201;48.758;9.290;2022-08-14T08:12:24;48.60;1.00
429;DHT22;201;48.758;9.290;2022-08-14T08:14:50;48.40;1.00
429;DHT22;201;48.758;9.290;2022-08-14T08:17:17;48.10;1.00
429;DHT22;201;48.758;9.290;2022-08-14T08:19:45;47.60;1.00
429;DHT22;201;48.758;9.290;2022-08-14T08:22:12;47.70;1.00
429;DHT22;201;48.758;9.290;2022-08-14T08:24:38;47.80;1.00
429;DHT22;201;48.758;9.290;2022-08-14T08:27:17;47.80;1.00
429;DHT22;201;48.758;9.290;2022-08-14T08:29:44;47.20;1.00
429;DHT22;201;48.758;9.290;2022-08-14T08:32:09;47.10;1.00
429;DHT22;201;48.758;9.290;2022-08-14T08:34:45;46.80;1.00
429;DHT22;201;48.758;9.290;2022-08-14T08:37:11;47.50;1.00
429;DHT22;201;48.758;9.290;2022-08-14T08:39:45;47.90;1.00
429;DHT22;201;48.758;9.290;2022-08-14T08:42:11;45.80;1.00
429;DHT22;201;48.758;9.290;2022-08-14T08:44:36;44.90;1.00
429;DHT22;201;48.758;9.290;2022-08-14T08:47:02;44.90;1.00
429;DHT22;201;48.758;9.290;2022-08-14T08:49:39;44.90;1.00
429;DHT22;201;48.758;9.290;2022-08-14T08:52:06;46.40;1.00
429;DHT22;201;48.758;9.290;2022-08-14T08:54:32;46.80;1.00
429;DHT22;201;48.758;9.290;2022-08-14T08:56:58;46.80;1.00
429;DHT22;201;48.758;9.290;2022-08-14T08:59:28;46.90;1.00
429;DHT22;201;48.758;9.290;2022-08-14T09:01:56;46.70;1.00
429;DHT22;201;48.758;9.290;2022-08-14T09:04:24;47.00;1.00
429;DHT22;201;48.758;9.290;2022-08-14T09:06:50;46.30;1.00
429;DHT22;201;48.758;9.290;2022-08-14T09:09:27;46.00;1.00
429;DHT22;201;48.758;9.290;2022-08-14T09:11:54;44.30;1.00
429;DHT22;201;48.758;9.290;2022-08-14T09:14:21;43.40;1.00
429;DHT22;201;48.758;9.290;2022-08-14T09:16:48;43.00;1.00
429;DHT22;201;48.758;9.290;2022-08-14T09:19:14;43.30;1.00
429;DHT22;201;48.758;9.290;2022-08-14T09:21:40;44.60;1.00
429;DHT22;201;48.758;9.290;2022-08-14T09:24:07;43.10;1.00
429;DHT22;201;48.758;9.290;2022-08-14T09:26:34;42.60;1.00
429;DHT22;201;48.758;9.290;2022-08-14T09:29:00;41.50;1.00
429;DHT22;201;48.758;9.290;2022-08-14T09:31:28;42.20;1.00
429;DHT22;201;48.758;9.290;2022-08-14T09:45:47;40.50;1.00
429;DHT22;201;48.758;9.290;2022-08-14T09:48:20;40.50;1.00
429;DHT22;201;48.758;9.290;2022-08-14T09:50:54;41.30;1.00
429;DHT22;201;48.758;9.290;2022-08-14T09:54:14;40.70;1.00
429;DHT22;201;48.758;9.290;2022-08-14T09:56:22;40.40;1.00
429;DHT22;201;48.758;9.290;2022-08-14T09:58:47;40.80;1.00
429;DHT22;201;48.758;9.290;2022-08-14T10:01:18;40.70;1.00
429;DHT22;201;48.758;9.290;2022-08-14T10:03:50;41.00;1.00
429;DHT22;201;48.758;9.290;2022-08-14T10:06:19;41.20;1.00
429;DHT22;201;48.758;9.290;2022-08-14T10:08:48;41.80;1.00
429;DHT22;201;48.758;9.290;2022-08-14T10:11:18;43.70;1.00
429;DHT22;201;48.758;9.290;2022-08-14T10:13:46;44.40;1.00
429;DHT22;201;48.758;9.290;2022-08-14T10:16:12;45.40;1.00
429;DHT22;201;48.758;9.290;2022-08-14T10:18:38;44.70;1.00
429;DHT22;201;48.758;9.290;2022-08-14T10:21:06;44.10;1.00
429;DHT22;201;48.758;9.290;2022-08-14T10:23:41;44.40;1.00
429;DHT22;201;48.758;9.290;2022-08-14T10:26:08;43.70;1.00
429;DHT22;201;48.758;9.290;2022-08-14T10:28:44;43.40;1.00
429;DHT22;201;48.758;9.290;2022-08-14T10:31:20;43.40;1.00
429;DHT22;201;48.758;9.290;2022-08-14T10:34:06;44.10;1.00
429;DHT22;201;48.758;9.290;2022-08-14T10:36:37;43.40;1.00
429;DHT22;201;48.758;9.290;2022-08-14T10:39:06;42.80;1.00
429;DHT22;201;48.758;9.290;2022-08-14T10:41:36;42.80;1.00
429;DHT22;201;48.758;9.290;2022-08-14T10:44:12;43.50;1.00
429;DHT22;201;48.758;9.290;2022-08-14T10:46:44;43.10;1.00
429;DHT22;201;48.758;9.290;2022-08-14T10:49:20;41.20;1.00
429;DHT22;201;48.758;9.290;2022-08-14T10:54:42;39.00;1.00
429;DHT22;201;48.758;9.290;2022-08-14T10:57:26;38.00;1.00
429;DHT22;201;48.758;9.290;2022-08-14T10:59:58;36.80;1.00
429;DHT22;201;48.758;9.290;2022-08-14T11:02:32;37.60;1.00
429;DHT22;201;48.758;9.290;2022-08-14T11:07:40;39.40;1.00
429;DHT22;201;48.758;9.290;2022-08-14T11:10:11;40.60;1.00
429;DHT22;201;48.758;9.290;2022-08-14T11:12:41;41.40;1.00
429;DHT22;201;48.758;9.290;2022-08-14T11:15:10;41.50;1.00
429;DHT22;201;48.758;9.290;2022-08-14T11:17:37;40.40;1.00
429;DHT22;201;48.758;9.290;2022-08-14T11:20:05;39.60;1.00
429;DHT22;201;48.758;9.290;2022-08-14T11:22:31;38.80;1.00
429;DHT22;201;48.758;9.290;2022-08-14T11:25:04;38.00;1.00
429;DHT22;201;48.758;9.290;2022-08-14T11:27:32;36.20;1.00
429;DHT22;201;48.758;9.290;2022-08-14T11:30:08;35.70;1.00
429;DHT22;201;48.758;9.290;2022-08-14T11:32:34;34.70;1.00
429;DHT22;201;48.758;9.290;2022-08-14T11:35:01;34.10;1.00
429;DHT22;201;48.758;9.290;2022-08-14T11:37:30;33.70;1.00
429;DHT22;201;48.758;9.290;2022-08-14T11:40:00;33.30;1.00
429;DHT22;201;48.758;9.290;2022-08-14T11:42:27;32.90;1.00
429;DHT22;201;48.758;9.290;2022-08-14T11:44:56;32.60;1.00
429;DHT22;201;48.758;9.290;2022-08-14T11:47:22;32.50;1.00
429;DHT22;201;48.758;9.290;2022-08-14T11:49:48;32.60;1.00
429;DHT22;201;48.758;9.290;2022-08-14T11:52:14;32.90;1.00
429;DHT22;201;48.758;9.290;2022-08-14T11:54:41;32.90;1.00
429;DHT22;201;48.758;9.290;2022-08-14T11:57:16;32.90;1.00
429;DHT22;201;48.758;9.290;2022-08-14T11:59:42;32.90;1.00
429;DHT22;201;48.758;9.290;2022-08-14T12:02:12;33.10;1.00
429;DHT22;201;48.758;9.290;2022-08-14T12:04:51;33.00;1.00
429;DHT22;201;48.758;9.290;2022-08-14T12:07:18;33.10;1.00
429;DHT22;201;48.758;9.290;2022-08-14T12:09:45;32.80;1.00
429;DHT22;201;48.758;9.290;2022-08-14T12:12:19;32.70;1.00
429;DHT22;201;48.758;9.290;2022-08-14T12:14:55;32.60;1.00
429;DHT22;201;48.758;9.290;2022-08-14T12:17:29;32.60;1.00
429;DHT22;201;48.758;9.290;2022-08-14T12:20:02;32.70;1.00
429;DHT22;201;48.758;9.290;2022-08-14T12:22:39;32.80;1.00
429;DHT22;201;48.758;9.290;2022-08-14T12:25:07;32.50;1.00
429;DHT22;201;48.758;9.290;2022-08-14T12:27:41;32.40;1.00
429;DHT22;201;48.758;9.290;2022-08-14T12:30:08;32.40;1.00
429;DHT22;201;48.758;9.290;2022-08-14T12:32:43;32.60;1.00
429;DHT22;201;48.758;9.290;2022-08-14T12:35:12;32.30;1.00
429;DHT22;201;48.758;9.290;2022-08-14T12:37:46;32.30;1.00
429;DHT22;201;48.758;9.290;2022-08-14T12:40:14;32.10;1.00
429;DHT22;201;48.758;9.290;2022-08-14T12:42:40;32.20;1.00
429;DHT22;201;48.758;9.290;2022-08-14T12:45:07;32.30;1.00
429;DHT22;201;48.758;9.290;2022-08-14T12:47:32;32.40;1.00
429;DHT22;201;48.758;9.290;2022-08-14T12:49:58;32.60;1.00
429;DHT22;201;48.758;9.290;2022-08-14T12:52:32;32.90;1.00
429;DHT22;201;48.758;9.290;2022-08-14T12:55:04;33.10;1.00
429;DHT22;201;48.758;9.290;2022-08-14T12:57:37;32.90;1.00
429;DHT22;201;48.758;9.290;2022-08-14T13:00:19;33.10;1.00
429;DHT22;201;48.758;9.290;2022-08-14T13:02:47;33.30;1.00
429;DHT22;201;48.758;9.290;2022-08-14T13:05:14;33.50;1.00
429;DHT22;201;48.758;9.290;2022-08-14T13:07:41;33.40;1.00
429;DHT22;201;48.758;9.290;2022-08-14T13:10:09;33.00;1.00
429;DHT22;201;48.758;9.290;2022-08-14T13:12:37;32.70;1.00
429;DHT22;201;48.758;9.290;2022-08-14T13:15:06;32.60;1.00
429;DHT22;201;48.758;9.290;2022-08-14T13:17:38;32.50;1.00
429;DHT22;201;48.758;9.290;2022-08-14T13:20:04;32.50;1.00
429;DHT22;201;48.758;9.290;2022-08-14T13:22:33;32.40;1.00
429;DHT22;201;48.758;9.290;2022-08-14T13:24:59;32.50;1.00
429;DHT22;201;48.758;9.290;2022-08-14T13:27:27;32.30;1.00
429;DHT22;201;48.758;9.290;2022-08-14T13:29:56;32.20;1.00
429;DHT22;201;48.758;9.290;2022-08-14T13:32:25;32.10;1.00
429;DHT22;201;48.758;9.290;2022-08-14T13:34:53;32.10;1.00
429;DHT22;201;48.758;9.290;2022-08-14T13:37:18;32.10;1.00
429;DHT22;201;48.758;9.290;2022-08-14T13:39:47;31.90;1.00
429;DHT22;201;48.758;9.290;2022-08-14T13:42:16;32.00;1.00
429;DHT22;201;48.758;9.290;2022-08-14T13:44:43;32.10;1.00
429;DHT22;201;48.758;9.290;2022-08-14T13:47:10;32.40;1.00
429;DHT22;201;48.758;9.290;2022-08-14T13:49:39;32.40;1.00
429;DHT22;201;48.758;9.290;2022-08-14T13:52:07;32.50;1.00
429;DHT22;201;48.758;9.290;2022-08-14T13:54:35;32.80;1.00
429;DHT22;201;48.758;9.290;2022-08-14T13:57:04;32.80;1.00
429;DHT22;201;48.758;9.290;2022-08-14T13:59:30;33.10;1.00
429;DHT22;201;48.758;9.290;2022-08-14T14:02:04;32.90;1.00
429;DHT22;201;48.758;9.290;2022-08-14T14:04:30;32.80;1.00
429;DHT22;201;48.758;9.290;2022-08-14T14:06:59;32.90;1.00
429;DHT22;201;48.758;9.290;2022-08-14T14:09:29;33.10;1.00
429;DHT22;201;48.758;9.290;2022-08-14T14:11:57;33.10;1.00
429;DHT22;201;48.758;9.290;2022-08-14T14:14:23;32.80;1.00
429;DHT22;201;48.758;9.290;2022-08-14T14:16:50;32.50;1.00
429;DHT22;201;48.758;9.290;2022-08-14T14:19:19;32.40;1.00
429;DHT22;201;48.758;9.290;2022-08-14T14:21:49;32.20;1.00
429;DHT22;201;48.758;9.290;2022-08-14T14:24:15;32.10;1.00
429;DHT22;201;48.758;9.290;2022-08-14T14:26:44;32.00;1.00
429;DHT22;201;48.758;9.290;2022-08-14T14:29:11;31.90;1.00
429;DHT22;201;48.758;9.290;2022-08-14T14:31:39;32.10;1.00
429;DHT22;201;48.758;9.290;2022-08-14T14:34:06;32.20;1.00
429;DHT22;201;48.758;9.290;2022-08-14T14:36:37;32.50;1.00
429;DHT22;201;48.758;9.290;2022-08-14T14:39:06;32.40;1.00
429;DHT22;201;48.758;9.290;2022-08-14T14:41:36;32.30;1.00
429;DHT22;201;48.758;9.290;2022-08-14T14:44:03;32.50;1.00
429;DHT22;201;48.758;9.290;2022-08-14T14:46:34;32.60;1.00
429;DHT22;201;48.758;9.290;2022-08-14T14:49:01;32.70;1.00
429;DHT22;201;48.758;9.290;2022-08-14T14:51:27;32.80;1.00
429;DHT22;201;48.758;9.290;2022-08-14T14:53:52;32.70;1.00
429;DHT22;201;48.758;9.290;2022-08-14T14:56:19;32.70;1.00
429;DHT22;201;48.758;9.290;2022-08-14T14:58:44;32.60;1.00
429;DHT22;201;48.758;9.290;2022-08-14T15:01:11;32.70;1.00
429;DHT22;201;48.758;9.290;2022-08-14T15:03:39;32.60;1.00
429;DHT22;201;48.758;9.290;2022-08-14T15:06:07;32.40;1.00
429;DHT22;201;48.758;9.290;2022-08-14T15:08:33;32.20;1.00
429;DHT22;201;48.758;9.290;2022-08-14T15:10:59;32.20;1.00
429;DHT22;201;48.758;9.290;2022-08-14T15:13:25;32.30;1.00
429;DHT22;201;48.758;9.290;2022-08-14T15:15:51;32.30;1.00
429;DHT22;201;48.758;9.290;2022-08-14T15:18:21;32.40;1.00
429;DHT22;201;48.758;9.290;2022-08-14T15:20:48;32.40;1.00
429;DHT22;201;48.758;9.290;2022-08-14T15:23:13;32.30;1.00
429;DHT22;201;48.758;9.290;2022-08-14T15:25:40;32.30;1.00
429;DHT22;201;48.758;9.290;2022-08-14T15:28:06;32.00;1.00
429;DHT22;201;48.758;9.290;2022-08-14T15:30:38;32.00;1.00
429;DHT22;201;48.758;9.290;2022-08-14T15:33:03;32.10;1.00
429;DHT22;201;48.758;9.290;2022-08-14T15:35:29;32.10;1.00
429;DHT22;201;48.758;9.290;2022-08-14T15:37:58;31.80;1.00
429;DHT22;201;48.758;9.290;2022-08-14T15:40:34;31.50;1.00
429;DHT22;201;48.758;9.290;2022-08-14T15:43:02;31.40;1.00
429;DHT22;201;48.758;9.290;2022-08-14T15:45:28;31.40;1.00
429;DHT22;201;48.758;9.290;2022-08-14T15:47:53;31.40;1.00
429;DHT22;201;48.758;9.290;2022-08-14T15:50:20;31.50;1.00
429;DHT22;201;48.758;9.290;2022-08-14T15:52:46;31.50;1.00
429;DHT22;201;48.758;9.290;2022-08-14T15:55:13;31.70;1.00
429;DHT22;201;48.758;9.290;2022-08-14T15:57:39;31.90;1.00
429;DHT22;201;48.758;9.290;2022-08-14T16:00:07;32.00;1.00
429;DHT22;201;48.758;9.290;2022-08-14T16:02:51;32.30;1.00
429;DHT22;201;48.758;9.290;2022-08-14T16:05:19;32.40;1.00
429;DHT22;201;48.758;9.290;2022-08-14T16:07:50;32.50;1.00
429;DHT22;201;48.758;9.290;2022-08-14T16:10:16;32.60;1.00
429;DHT22;201;48.758;9.290;2022-08-14T16:12:41;32.60;1.00
429;DHT22;201;48.758;9.290;2022-08-14T16:15:07;32.50;1.00
429;DHT22;201;48.758;9.290;2022-08-14T16:17:35;32.40;1.00
429;DHT22;201;48.758;9.290;2022-08-14T16:20:03;32.40;1.00
429;DHT22;201;48.758;9.290;2022-08-14T16:22:30;32.50;1.00
429;DHT22;201;48.758;9.290;2022-08-14T16:24:57;32.60;1.00
429;DHT22;201;48.758;9.290;2022-08-14T16:27:23;32.60;1.00
429;DHT22;201;48.758;9.290;2022-08-14T16:29:49;32.60;1.00
429;DHT22;201;48.758;9.290;2022-08-14T16:32:15;32.50;1.00
429;DHT22;201;48.758;9.290;2022-08-14T16:34:43;32.50;1.00
429;DHT22;201;48.758;9.290;2022-08-14T16:37:10;32.60;1.00
429;DHT22;201;48.758;9.290;2022-08-14T16:39:38;32.60;1.00
429;DHT22;201;48.758;9.290;2022-08-14T16:42:05;32.60;1.00
429;DHT22;201;48.758;9.290;2022-08-14T16:44:33;32.50;1.00
429;DHT22;201;48.758;9.290;2022-08-14T16:47:10;32.40;1.00
429;DHT22;201;48.758;9.290;2022-08-14T16:49:43;32.30;1.00
429;DHT22;201;48.758;9.290;2022-08-14T16:52:11;32.30;1.00
429;DHT22;201;48.758;9.290;2022-08-14T16:54:38;32.20;1.00
429;DHT22;201;48.758;9.290;2022-08-14T16:57:18;32.20;1.00
429;DHT22;201;48.758;9.290;2022-08-14T16:59:54;32.20;1.00
429;DHT22;201;48.758;9.290;2022-08-14T17:02:38;32.20;1.00
429;DHT22;201;48.758;9.290;2022-08-14T17:05:23;32.20;1.00
429;DHT22;201;48.758;9.290;2022-08-14T17:08:08;32.10;1.00
429;DHT22;201;48.758;9.290;2022-08-14T17:13:24;31.80;1.00
429;DHT22;201;48.758;9.290;2022-08-14T17:16:17;31.60;1.00
429;DHT22;201;48.758;9.290;2022-08-14T17:23:48;31.00;1.00
429;DHT22;201;48.758;9.290;2022-08-14T17:26:50;30.90;1.00